sensor_id;sensor_type;location;lat;lon;timestamp;P1;durP1;ratioP1;P2;durP2;ratioP2
75054;SDS011;63636;44.746;10.488;2023-05-02T00:02:02;11.95;;;8.10;;
75054;SDS011;63636;44.746;10.488;2023-05-02T00:04:28;12.60;;;8.00;;
75054;SDS011;63636;44.746;10.488;2023-05-02T00:06:53;10.68;;;7.65;;
75054;SDS011;63636;44.746;10.488;2023-05-02T00:09:19;11.70;;;8.00;;
75054;SDS011;63636;44.746;10.488;2023-05-02T00:11:45;12.07;;;8.40;;
75054;SDS011;63636;44.746;10.488;2023-05-02T00:14:10;12.45;;;8.27;;
75054;SDS011;63636;44.746;10.488;2023-05-02T00:16:36;12.00;;;8.63;;
75054;SDS011;63636;44.746;10.488;2023-05-02T00:19:01;12.27;;;8.70;;
75054;SDS011;63636;44.746;10.488;2023-05-02T00:21:27;12.15;;;8.38;;
75054;SDS011;63636;44.746;10.488;2023-05-02T00:23:57;12.38;;;8.45;;
75054;SDS011;63636;44.746;10.488;2023-05-02T00:26:23;11.95;;;8.10;;
75054;SDS011;63636;44.746;10.488;2023-05-02T00:28:48;12.35;;;8.77;;
75054;SDS011;63636;44.746;10.488;2023-05-02T00:31:14;12.57;;;8.65;;
75054;SDS011;63636;44.746;10.488;2023-05-02T00:33:41;12.93;;;8.93;;
75054;SDS011;63636;44.746;10.488;2023-05-02T00:36:15;13.13;;;8.77;;
75054;SDS011;63636;44.746;10.488;2023-05-02T00:38:42;12.63;;;8.60;;
75054;SDS011;63636;44.746;10.488;2023-05-02T00:41:08;12.98;;;8.70;;
75054;SDS011;63636;44.746;10.488;2023-05-02T00:43:34;13.02;;;8.93;;
75054;SDS011;63636;44.746;10.488;2023-05-02T00:46:01;12.93;;;8.73;;
75054;SDS011;63636;44.746;10.488;2023-05-02T00:48:26;13.15;;;8.73;;
75054;SDS011;63636;44.746;10.488;2023-05-02T00:50:52;13.15;;;8.93;;
75054;SDS011;63636;44.746;10.488;2023-05-02T00:53:18;12.00;;;8.60;;
75054;SDS011;63636;44.746;10.488;2023-05-02T00:55:43;12.55;;;8.25;;
75054;SDS011;63636;44.746;10.488;2023-05-02T00:58:13;13.13;;;8.95;;
75054;SDS011;63636;44.746;10.488;2023-05-02T01:06:08;12.73;;;7.75;;
75054;SDS011;63636;44.746;10.488;2023-05-02T01:08:41;10.95;;;7.80;;
75054;SDS011;63636;44.746;10.488;2023-05-02T01:13:35;11.57;;;7.53;;
75054;SDS011;63636;44.746;10.488;2023-05-02T01:16:02;11.57;;;7.82;;
75054;SDS011;63636;44.746;10.488;2023-05-02T01:18:33;11.50;;;8.02;;
75054;SDS011;63636;44.746;10.488;2023-05-02T01:21:00;11.52;;;7.93;;
75054;SDS011;63636;44.746;10.488;2023-05-02T01:23:30;12.45;;;8.25;;
75054;SDS011;63636;44.746;10.488;2023-05-02T01:29:14;9.00;;;6.28;;
75054;SDS011;63636;44.746;10.488;2023-05-02T01:31:20;9.25;;;6.35;;
75054;SDS011;63636;44.746;10.488;2023-05-02T01:33:47;8.65;;;6.00;;
75054;SDS011;63636;44.746;10.488;2023-05-02T01:36:13;8.63;;;5.40;;
75054;SDS011;63636;44.746;10.488;2023-05-02T01:38:41;8.55;;;5.57;;
75054;SDS011;63636;44.746;10.488;2023-05-02T01:41:08;9.02;;;5.35;;
75054;SDS011;63636;44.746;10.488;2023-05-02T01:43:34;8.98;;;5.78;;
75054;SDS011;63636;44.746;10.488;2023-05-02T01:46:02;9.07;;;5.90;;
75054;SDS011;63636;44.746;10.488;2023-05-02T01:48:28;9.88;;;6.35;;
75054;SDS011;63636;44.746;10.488;2023-05-02T01:50:55;8.93;;;5.72;;
75054;SDS011;63636;44.746;10.488;2023-05-02T01:53:26;8.10;;;5.20;;
75054;SDS011;63636;44.746;10.488;2023-05-02T01:55:53;7.43;;;4.82;;
75054;SDS011;63636;44.746;10.488;2023-05-02T01:58:19;8.15;;;5.00;;
75054;SDS011;63636;44.746;10.488;2023-05-02T02:00:45;8.60;;;4.80;;
75054;SDS011;63636;44.746;10.488;2023-05-02T02:03:12;7.45;;;4.40;;
75054;SDS011;63636;44.746;10.488;2023-05-02T02:05:38;7.53;;;4.68;;
75054;SDS011;63636;44.746;10.488;2023-05-02T02:08:04;7.53;;;4.82;;
75054;SDS011;63636;44.746;10.488;2023-05-02T02:10:30;9.23;;;5.57;;
75054;SDS011;63636;44.746;10.488;2023-05-02T02:13:00;7.75;;;5.07;;
75054;SDS011;63636;44.746;10.488;2023-05-02T02:15:29;8.57;;;5.57;;
75054;SDS011;63636;44.746;10.488;2023-05-02T02:18:00;8.30;;;5.28;;
75054;SDS011;63636;44.746;10.488;2023-05-02T02:20:29;8.30;;;5.45;;
75054;SDS011;63636;44.746;10.488;2023-05-02T02:22:56;8.75;;;5.50;;
75054;SDS011;63636;44.746;10.488;2023-05-02T02:25:23;8.07;;;4.97;;
75054;SDS011;63636;44.746;10.488;2023-05-02T02:27:49;7.68;;;4.82;;
75054;SDS011;63636;44.746;10.488;2023-05-02T02:30:14;8.00;;;5.10;;
75054;SDS011;63636;44.746;10.488;2023-05-02T02:32:41;8.60;;;5.30;;
75054;SDS011;63636;44.746;10.488;2023-05-02T02:35:06;8.68;;;5.30;;
75054;SDS011;63636;44.746;10.488;2023-05-02T02:37:45;8.40;;;4.97;;
75054;SDS011;63636;44.746;10.488;2023-05-02T02:45:29;7.05;;;4.32;;
75054;SDS011;63636;44.746;10.488;2023-05-02T02:48:05;6.97;;;4.25;;
75054;SDS011;63636;44.746;10.488;2023-05-02T02:50:45;7.07;;;3.90;;
75054;SDS011;63636;44.746;10.488;2023-05-02T02:53:16;6.88;;;4.00;;
75054;SDS011;63636;44.746;10.488;2023-05-02T03:00:39;6.13;;;3.60;;
75054;SDS011;63636;44.746;10.488;2023-05-02T03:03:05;5.60;;;3.15;;
75054;SDS011;63636;44.746;10.488;2023-05-02T03:05:31;5.93;;;3.33;;
75054;SDS011;63636;44.746;10.488;2023-05-02T03:07:58;5.57;;;3.20;;
75054;SDS011;63636;44.746;10.488;2023-05-02T03:10:24;4.63;;;2.85;;
75054;SDS011;63636;44.746;10.488;2023-05-02T03:12:50;5.63;;;3.20;;
75054;SDS011;63636;44.746;10.488;2023-05-02T03:18:06;5.63;;;3.40;;
75054;SDS011;63636;44.746;10.488;2023-05-02T03:20:32;5.97;;;3.25;;
75054;SDS011;63636;44.746;10.488;2023-05-02T03:22:59;6.10;;;3.55;;
75054;SDS011;63636;44.746;10.488;2023-05-02T03:25:25;6.38;;;3.53;;
75054;SDS011;63636;44.746;10.488;2023-05-02T03:27:50;6.80;;;4.03;;
75054;SDS011;63636;44.746;10.488;2023-05-02T03:30:17;6.22;;;3.60;;
75054;SDS011;63636;44.746;10.488;2023-05-02T03:32:43;6.40;;;3.78;;
75054;SDS011;63636;44.746;10.488;2023-05-02T03:35:09;7.18;;;4.10;;
75054;SDS011;63636;44.746;10.488;2023-05-02T03:37:39;7.38;;;4.03;;
75054;SDS011;63636;44.746;10.488;2023-05-02T03:40:05;6.43;;;3.92;;
75054;SDS011;63636;44.746;10.488;2023-05-02T03:42:33;6.50;;;3.72;;
75054;SDS011;63636;44.746;10.488;2023-05-02T03:45:05;7.10;;;3.97;;
75054;SDS011;63636;44.746;10.488;2023-05-02T03:47:31;5.90;;;3.63;;
75054;SDS011;63636;44.746;10.488;2023-05-02T03:49:56;6.80;;;3.97;;
75054;SDS011;63636;44.746;10.488;2023-05-02T03:52:24;7.28;;;4.20;;
75054;SDS011;63636;44.746;10.488;2023-05-02T03:54:52;7.30;;;4.00;;
75054;SDS011;63636;44.746;10.488;2023-05-02T03:57:17;7.20;;;4.05;;
75054;SDS011;63636;44.746;10.488;2023-05-02T03:59:43;6.55;;;4.28;;
75054;SDS011;63636;44.746;10.488;2023-05-02T04:02:21;8.23;;;3.85;;
75054;SDS011;63636;44.746;10.488;2023-05-02T04:04:47;5.45;;;3.25;;
75054;SDS011;63636;44.746;10.488;2023-05-02T04:07:16;6.15;;;3.50;;
75054;SDS011;63636;44.746;10.488;2023-05-02T04:09:55;6.22;;;3.58;;
75054;SDS011;63636;44.746;10.488;2023-05-02T04:12:21;5.78;;;3.60;;
75054;SDS011;63636;44.746;10.488;2023-05-02T04:14:49;5.70;;;3.45;;
75054;SDS011;63636;44.746;10.488;2023-05-02T04:17:16;7.03;;;3.35;;
75054;SDS011;63636;44.746;10.488;2023-05-02T04:19:45;4.78;;;2.63;;
75054;SDS011;63636;44.746;10.488;2023-05-02T04:22:11;5.40;;;2.97;;
75054;SDS011;63636;44.746;10.488;2023-05-02T04:24:42;6.03;;;3.40;;
75054;SDS011;63636;44.746;10.488;2023-05-02T04:27:08;5.97;;;3.50;;
75054;SDS011;63636;44.746;10.488;2023-05-02T04:29:34;7.18;;;3.70;;
75054;SDS011;63636;44.746;10.488;2023-05-02T04:32:02;6.90;;;3.95;;
75054;SDS011;63636;44.746;10.488;2023-05-02T04:34:29;6.47;;;3.78;;
75054;SDS011;63636;44.746;10.488;2023-05-02T04:36:55;5.70;;;3.45;;
75054;SDS011;63636;44.746;10.488;2023-05-02T04:39:22;5.25;;;3.00;;
75054;SDS011;63636;44.746;10.488;2023-05-02T04:41:57;5.60;;;3.28;;
75054;SDS011;63636;44.746;10.488;2023-05-02T04:44:26;5.80;;;3.13;;
75054;SDS011;63636;44.746;10.488;2023-05-02T04:46:53;5.88;;;3.08;;
75054;SDS011;63636;44.746;10.488;2023-05-02T04:49:18;5.72;;;3.33;;
75054;SDS011;63636;44.746;10.488;2023-05-02T04:51:44;4.70;;;2.78;;
75054;SDS011;63636;44.746;10.488;2023-05-02T04:54:11;4.95;;;3.03;;
75054;SDS011;63636;44.746;10.488;2023-05-02T04:56:37;5.40;;;2.90;;
75054;SDS011;63636;44.746;10.488;2023-05-02T04:59:03;4.93;;;2.70;;
75054;SDS011;63636;44.746;10.488;2023-05-02T05:01:31;4.50;;;2.58;;
75054;SDS011;63636;44.746;10.488;2023-05-02T05:03:57;3.92;;;2.42;;
75054;SDS011;63636;44.746;10.488;2023-05-02T05:06:23;4.32;;;2.70;;
75054;SDS011;63636;44.746;10.488;2023-05-02T05:08:49;4.03;;;2.40;;
75054;SDS011;63636;44.746;10.488;2023-05-02T05:11:15;4.10;;;2.50;;
75054;SDS011;63636;44.746;10.488;2023-05-02T05:13:40;3.65;;;2.30;;
75054;SDS011;63636;44.746;10.488;2023-05-02T05:16:07;3.53;;;2.13;;
75054;SDS011;63636;44.746;10.488;2023-05-02T05:18:33;3.45;;;2.22;;
75054;SDS011;63636;44.746;10.488;2023-05-02T05:21:06;4.10;;;2.42;;
75054;SDS011;63636;44.746;10.488;2023-05-02T05:23:32;3.17;;;2.00;;
75054;SDS011;63636;44.746;10.488;2023-05-02T05:26:11;3.67;;;2.30;;
75054;SDS011;63636;44.746;10.488;2023-05-02T05:28:39;3.53;;;2.08;;
75054;SDS011;63636;44.746;10.488;2023-05-02T05:31:05;3.38;;;2.05;;
75054;SDS011;63636;44.746;10.488;2023-05-02T05:33:32;3.67;;;2.22;;
75054;SDS011;63636;44.746;10.488;2023-05-02T05:36:05;4.13;;;2.35;;
75054;SDS011;63636;44.746;10.488;2023-05-02T05:38:31;3.30;;;2.10;;
75054;SDS011;63636;44.746;10.488;2023-05-02T05:40:57;3.40;;;2.17;;
75054;SDS011;63636;44.746;10.488;2023-05-02T05:43:22;3.60;;;2.00;;
75054;SDS011;63636;44.746;10.488;2023-05-02T05:45:52;4.10;;;2.17;;
75054;SDS011;63636;44.746;10.488;2023-05-02T05:48:18;4.15;;;2.20;;
75054;SDS011;63636;44.746;10.488;2023-05-02T05:50:45;4.95;;;2.45;;
75054;SDS011;63636;44.746;10.488;2023-05-02T05:53:11;3.55;;;2.13;;
75054;SDS011;63636;44.746;10.488;2023-05-02T05:55:39;3.47;;;2.15;;
75054;SDS011;63636;44.746;10.488;2023-05-02T05:58:05;3.85;;;2.40;;
75054;SDS011;63636;44.746;10.488;2023-05-02T06:00:35;3.70;;;2.20;;
75054;SDS011;63636;44.746;10.488;2023-05-02T06:03:01;5.07;;;2.30;;
75054;SDS011;63636;44.746;10.488;2023-05-02T06:05:30;3.45;;;2.13;;
75054;SDS011;63636;44.746;10.488;2023-05-02T06:07:56;4.88;;;2.17;;
75054;SDS011;63636;44.746;10.488;2023-05-02T06:10:22;3.20;;;1.90;;
75054;SDS011;63636;44.746;10.488;2023-05-02T06:12:47;3.65;;;2.30;;
75054;SDS011;63636;44.746;10.488;2023-05-02T06:15:14;4.78;;;2.00;;
75054;SDS011;63636;44.746;10.488;2023-05-02T06:17:40;3.75;;;2.20;;
75054;SDS011;63636;44.746;10.488;2023-05-02T06:20:06;3.88;;;2.22;;
75054;SDS011;63636;44.746;10.488;2023-05-02T06:22:32;3.40;;;1.95;;
75054;SDS011;63636;44.746;10.488;2023-05-02T06:24:58;3.25;;;2.15;;
75054;SDS011;63636;44.746;10.488;2023-05-02T06:27:24;3.78;;;2.20;;
75054;SDS011;63636;44.746;10.488;2023-05-02T06:29:50;3.42;;;2.10;;
75054;SDS011;63636;44.746;10.488;2023-05-02T06:32:16;3.30;;;2.00;;
75054;SDS011;63636;44.746;10.488;2023-05-02T06:34:41;3.83;;;2.15;;
75054;SDS011;63636;44.746;10.488;2023-05-02T06:37:07;4.43;;;2.30;;
75054;SDS011;63636;44.746;10.488;2023-05-02T06:39:32;3.88;;;2.08;;
75054;SDS011;63636;44.746;10.488;2023-05-02T06:41:58;3.92;;;2.20;;
75054;SDS011;63636;44.746;10.488;2023-05-02T06:44:25;4.22;;;2.03;;
75054;SDS011;63636;44.746;10.488;2023-05-02T06:46:51;3.92;;;2.00;;
75054;SDS011;63636;44.746;10.488;2023-05-02T06:49:16;2.92;;;2.08;;
75054;SDS011;63636;44.746;10.488;2023-05-02T06:51:42;4.25;;;2.17;;
75054;SDS011;63636;44.746;10.488;2023-05-02T06:54:07;2.83;;;1.90;;
75054;SDS011;63636;44.746;10.488;2023-05-02T06:56:33;4.68;;;2.40;;
75054;SDS011;63636;44.746;10.488;2023-05-02T06:58:58;3.47;;;2.13;;
75054;SDS011;63636;44.746;10.488;2023-05-02T07:01:24;5.40;;;2.88;;
75054;SDS011;63636;44.746;10.488;2023-05-02T07:03:50;5.03;;;2.67;;
75054;SDS011;63636;44.746;10.488;2023-05-02T07:06:16;4.88;;;3.00;;
75054;SDS011;63636;44.746;10.488;2023-05-02T07:08:41;5.68;;;2.90;;
75054;SDS011;63636;44.746;10.488;2023-05-02T07:11:07;6.45;;;3.17;;
75054;SDS011;63636;44.746;10.488;2023-05-02T07:13:33;4.68;;;2.67;;
75054;SDS011;63636;44.746;10.488;2023-05-02T07:15:58;5.00;;;2.90;;
75054;SDS011;63636;44.746;10.488;2023-05-02T07:18:24;5.95;;;2.95;;
75054;SDS011;63636;44.746;10.488;2023-05-02T07:20:49;4.57;;;2.70;;
75054;SDS011;63636;44.746;10.488;2023-05-02T07:23:15;4.53;;;2.53;;
75054;SDS011;63636;44.746;10.488;2023-05-02T07:25:40;6.60;;;2.63;;
75054;SDS011;63636;44.746;10.488;2023-05-02T07:28:06;6.60;;;2.90;;
75054;SDS011;63636;44.746;10.488;2023-05-02T07:30:31;4.22;;;2.53;;
75054;SDS011;63636;44.746;10.488;2023-05-02T07:32:57;4.90;;;2.58;;
75054;SDS011;63636;44.746;10.488;2023-05-02T07:35:22;4.53;;;2.58;;
75054;SDS011;63636;44.746;10.488;2023-05-02T07:37:48;4.43;;;2.50;;
75054;SDS011;63636;44.746;10.488;2023-05-02T07:40:13;5.13;;;2.58;;
75054;SDS011;63636;44.746;10.488;2023-05-02T07:42:39;4.45;;;2.53;;
75054;SDS011;63636;44.746;10.488;2023-05-02T07:45:08;4.78;;;2.70;;
75054;SDS011;63636;44.746;10.488;2023-05-02T07:47:34;4.75;;;2.85;;
75054;SDS011;63636;44.746;10.488;2023-05-02T07:50:00;4.32;;;2.63;;
75054;SDS011;63636;44.746;10.488;2023-05-02T07:52:25;4.45;;;2.30;;
75054;SDS011;63636;44.746;10.488;2023-05-02T07:54:51;4.25;;;2.65;;
75054;SDS011;63636;44.746;10.488;2023-05-02T07:57:17;5.05;;;2.78;;
75054;SDS011;63636;44.746;10.488;2023-05-02T07:59:43;4.22;;;2.60;;
75054;SDS011;63636;44.746;10.488;2023-05-02T08:02:08;4.32;;;2.75;;
75054;SDS011;63636;44.746;10.488;2023-05-02T08:04:35;5.25;;;2.60;;
75054;SDS011;63636;44.746;10.488;2023-05-02T08:07:01;4.18;;;2.58;;
75054;SDS011;63636;44.746;10.488;2023-05-02T08:09:26;4.45;;;2.67;;
75054;SDS011;63636;44.746;10.488;2023-05-02T08:11:52;4.57;;;2.50;;
75054;SDS011;63636;44.746;10.488;2023-05-02T08:14:17;4.30;;;2.60;;
75054;SDS011;63636;44.746;10.488;2023-05-02T08:16:43;4.38;;;2.70;;
75054;SDS011;63636;44.746;10.488;2023-05-02T08:19:08;3.78;;;2.50;;
75054;SDS011;63636;44.746;10.488;2023-05-02T08:21:35;4.97;;;2.50;;
75054;SDS011;63636;44.746;10.488;2023-05-02T08:24:00;4.70;;;2.45;;
75054;SDS011;63636;44.746;10.488;2023-05-02T08:26:26;3.65;;;2.45;;
75054;SDS011;63636;44.746;10.488;2023-05-02T08:28:51;3.58;;;2.20;;
75054;SDS011;63636;44.746;10.488;2023-05-02T08:31:17;4.00;;;2.55;;
75054;SDS011;63636;44.746;10.488;2023-05-02T08:33:42;4.90;;;2.45;;
75054;SDS011;63636;44.746;10.488;2023-05-02T08:36:15;4.47;;;2.63;;
75054;SDS011;63636;44.746;10.488;2023-05-02T08:38:41;5.03;;;2.50;;
75054;SDS011;63636;44.746;10.488;2023-05-02T08:41:16;4.22;;;2.67;;
75054;SDS011;63636;44.746;10.488;2023-05-02T08:43:42;4.15;;;2.70;;
75054;SDS011;63636;44.746;10.488;2023-05-02T08:46:09;4.10;;;2.63;;
75054;SDS011;63636;44.746;10.488;2023-05-02T08:48:35;4.43;;;2.70;;
75054;SDS011;63636;44.746;10.488;2023-05-02T08:51:01;4.43;;;2.97;;
75054;SDS011;63636;44.746;10.488;2023-05-02T08:53:27;4.72;;;2.95;;
75054;SDS011;63636;44.746;10.488;2023-05-02T08:55:53;5.80;;;3.20;;
75054;SDS011;63636;44.746;10.488;2023-05-02T08:58:19;5.03;;;3.00;;
75054;SDS011;63636;44.746;10.488;2023-05-02T09:00:45;4.97;;;2.95;;
75054;SDS011;63636;44.746;10.488;2023-05-02T09:03:32;5.18;;;3.13;;
75054;SDS011;63636;44.746;10.488;2023-05-02T09:06:02;5.57;;;3.20;;
75054;SDS011;63636;44.746;10.488;2023-05-02T09:08:28;4.32;;;2.80;;
75054;SDS011;63636;44.746;10.488;2023-05-02T09:10:53;5.43;;;2.97;;
75054;SDS011;63636;44.746;10.488;2023-05-02T09:16:01;6.35;;;3.40;;
75054;SDS011;63636;44.746;10.488;2023-05-02T09:18:28;5.05;;;3.08;;
75054;SDS011;63636;44.746;10.488;2023-05-02T09:20:54;4.82;;;3.00;;
75054;SDS011;63636;44.746;10.488;2023-05-02T09:23:21;4.95;;;3.22;;
75054;SDS011;63636;44.746;10.488;2023-05-02T09:25:55;4.57;;;2.97;;
75054;SDS011;63636;44.746;10.488;2023-05-02T09:28:35;6.32;;;2.97;;
75054;SDS011;63636;44.746;10.488;2023-05-02T09:31:05;4.90;;;2.95;;
75054;SDS011;63636;44.746;10.488;2023-05-02T09:33:31;3.70;;;2.63;;
75054;SDS011;63636;44.746;10.488;2023-05-02T09:35:57;5.20;;;3.00;;
75054;SDS011;63636;44.746;10.488;2023-05-02T09:38:23;4.90;;;2.95;;
75054;SDS011;63636;44.746;10.488;2023-05-02T09:40:53;5.65;;;2.97;;
75054;SDS011;63636;44.746;10.488;2023-05-02T09:43:20;4.70;;;3.10;;
75054;SDS011;63636;44.746;10.488;2023-05-02T09:46:02;5.38;;;3.30;;
75054;SDS011;63636;44.746;10.488;2023-05-02T09:48:28;5.43;;;2.80;;
75054;SDS011;63636;44.746;10.488;2023-05-02T09:50:55;4.97;;;2.80;;
75054;SDS011;63636;44.746;10.488;2023-05-02T09:53:21;5.50;;;2.88;;
75054;SDS011;63636;44.746;10.488;2023-05-02T09:55:47;4.32;;;2.75;;
75054;SDS011;63636;44.746;10.488;2023-05-02T09:58:19;5.40;;;2.58;;
75054;SDS011;63636;44.746;10.488;2023-05-02T10:00:48;3.53;;;2.20;;
75054;SDS011;63636;44.746;10.488;2023-05-02T10:03:15;4.32;;;2.47;;
75054;SDS011;63636;44.746;10.488;2023-05-02T10:05:42;4.15;;;2.38;;
75054;SDS011;63636;44.746;10.488;2023-05-02T10:08:08;3.50;;;2.10;;
75054;SDS011;63636;44.746;10.488;2023-05-02T10:10:42;5.60;;;2.88;;
75054;SDS011;63636;44.746;10.488;2023-05-02T10:13:09;5.07;;;2.72;;
75054;SDS011;63636;44.746;10.488;2023-05-02T10:15:41;4.15;;;2.53;;
75054;SDS011;63636;44.746;10.488;2023-05-02T10:18:07;4.05;;;2.50;;
75054;SDS011;63636;44.746;10.488;2023-05-02T10:20:37;3.90;;;2.50;;
75054;SDS011;63636;44.746;10.488;2023-05-02T10:23:07;3.50;;;2.10;;
75054;SDS011;63636;44.746;10.488;2023-05-02T10:25:34;3.00;;;2.10;;
75054;SDS011;63636;44.746;10.488;2023-05-02T10:28:00;3.72;;;2.22;;
75054;SDS011;63636;44.746;10.488;2023-05-02T10:30:26;3.67;;;2.10;;
75054;SDS011;63636;44.746;10.488;2023-05-02T10:32:52;4.93;;;2.45;;
75054;SDS011;63636;44.746;10.488;2023-05-02T10:35:18;3.45;;;2.20;;
75054;SDS011;63636;44.746;10.488;2023-05-02T10:37:44;3.70;;;2.20;;
75054;SDS011;63636;44.746;10.488;2023-05-02T10:40:11;3.55;;;2.13;;
75054;SDS011;63636;44.746;10.488;2023-05-02T10:42:38;4.70;;;2.30;;
75054;SDS011;63636;44.746;10.488;2023-05-02T10:45:09;3.47;;;2.10;;
75054;SDS011;63636;44.746;10.488;2023-05-02T10:47:35;2.80;;;2.00;;
75054;SDS011;63636;44.746;10.488;2023-05-02T10:50:02;3.00;;;2.15;;
75054;SDS011;63636;44.746;10.488;2023-05-02T10:55:13;4.50;;;2.20;;
75054;SDS011;63636;44.746;10.488;2023-05-02T11:00:30;4.25;;;2.20;;
75054;SDS011;63636;44.746;10.488;2023-05-02T11:02:56;4.10;;;2.45;;
75054;SDS011;63636;44.746;10.488;2023-05-02T11:05:22;3.47;;;2.40;;
75054;SDS011;63636;44.746;10.488;2023-05-02T11:07:48;4.03;;;2.63;;
75054;SDS011;63636;44.746;10.488;2023-05-02T11:15:10;3.75;;;2.60;;
75054;SDS011;63636;44.746;10.488;2023-05-02T11:20:20;4.50;;;2.88;;
75054;SDS011;63636;44.746;10.488;2023-05-02T11:22:46;4.72;;;2.90;;
75054;SDS011;63636;44.746;10.488;2023-05-02T11:27:56;4.03;;;2.63;;
75054;SDS011;63636;44.746;10.488;2023-05-02T11:30:55;3.95;;;2.75;;
75054;SDS011;63636;44.746;10.488;2023-05-02T11:33:21;5.28;;;2.83;;
75054;SDS011;63636;44.746;10.488;2023-05-02T11:35:49;4.18;;;2.85;;
75054;SDS011;63636;44.746;10.488;2023-05-02T11:38:22;4.15;;;2.88;;
75054;SDS011;63636;44.746;10.488;2023-05-02T11:40:52;4.60;;;3.05;;
75054;SDS011;63636;44.746;10.488;2023-05-02T11:43:18;4.45;;;3.00;;
75054;SDS011;63636;44.746;10.488;2023-05-02T11:45:45;4.75;;;3.08;;
75054;SDS011;63636;44.746;10.488;2023-05-02T11:48:12;4.72;;;3.08;;
75054;SDS011;63636;44.746;10.488;2023-05-02T11:50:41;4.70;;;3.20;;
75054;SDS011;63636;44.746;10.488;2023-05-02T11:53:14;5.22;;;3.35;;
75054;SDS011;63636;44.746;10.488;2023-05-02T11:55:52;4.80;;;3.20;;
75054;SDS011;63636;44.746;10.488;2023-05-02T11:58:19;5.55;;;3.22;;
75054;SDS011;63636;44.746;10.488;2023-05-02T12:00:45;4.68;;;3.17;;
75054;SDS011;63636;44.746;10.488;2023-05-02T12:03:25;5.65;;;3.30;;
75054;SDS011;63636;44.746;10.488;2023-05-02T12:05:50;5.45;;;3.22;;
75054;SDS011;63636;44.746;10.488;2023-05-02T12:08:20;5.68;;;3.50;;
75054;SDS011;63636;44.746;10.488;2023-05-02T12:10:46;4.93;;;3.20;;
75054;SDS011;63636;44.746;10.488;2023-05-02T12:13:13;6.10;;;3.13;;
75054;SDS011;63636;44.746;10.488;2023-05-02T12:15:39;4.18;;;2.90;;
75054;SDS011;63636;44.746;10.488;2023-05-02T12:18:04;5.05;;;3.30;;
75054;SDS011;63636;44.746;10.488;2023-05-02T12:20:30;6.70;;;4.00;;
75054;SDS011;63636;44.746;10.488;2023-05-02T12:22:56;5.68;;;3.50;;
75054;SDS011;63636;44.746;10.488;2023-05-02T12:25:22;5.90;;;2.97;;
75054;SDS011;63636;44.746;10.488;2023-05-02T12:28:00;5.03;;;3.25;;
75054;SDS011;63636;44.746;10.488;2023-05-02T12:30:27;4.47;;;3.03;;
75054;SDS011;63636;44.746;10.488;2023-05-02T12:32:56;4.07;;;2.85;;
75054;SDS011;63636;44.746;10.488;2023-05-02T12:35:23;4.80;;;3.17;;
75054;SDS011;63636;44.746;10.488;2023-05-02T12:37:48;5.43;;;3.30;;
75054;SDS011;63636;44.746;10.488;2023-05-02T12:40:15;5.75;;;3.38;;
75054;SDS011;63636;44.746;10.488;2023-05-02T12:42:41;5.10;;;2.92;;
75054;SDS011;63636;44.746;10.488;2023-05-02T12:45:17;5.00;;;3.40;;
75054;SDS011;63636;44.746;10.488;2023-05-02T12:47:45;5.28;;;3.22;;
75054;SDS011;63636;44.746;10.488;2023-05-02T12:50:11;5.32;;;3.60;;
75054;SDS011;63636;44.746;10.488;2023-05-02T12:52:49;7.68;;;3.40;;
75054;SDS011;63636;44.746;10.488;2023-05-02T12:55:22;4.80;;;3.20;;
75054;SDS011;63636;44.746;10.488;2023-05-02T12:57:49;5.13;;;2.85;;
75054;SDS011;63636;44.746;10.488;2023-05-02T13:00:17;5.03;;;3.13;;
75054;SDS011;63636;44.746;10.488;2023-05-02T13:02:43;6.22;;;3.50;;
75054;SDS011;63636;44.746;10.488;2023-05-02T13:05:15;5.10;;;3.30;;
75054;SDS011;63636;44.746;10.488;2023-05-02T13:07:41;4.55;;;3.05;;
75054;SDS011;63636;44.746;10.488;2023-05-02T13:10:07;5.88;;;3.30;;
75054;SDS011;63636;44.746;10.488;2023-05-02T13:12:33;5.18;;;3.28;;
75054;SDS011;63636;44.746;10.488;2023-05-02T13:15:01;6.60;;;3.22;;
75054;SDS011;63636;44.746;10.488;2023-05-02T13:17:27;5.13;;;2.80;;
75054;SDS011;63636;44.746;10.488;2023-05-02T13:19:53;4.28;;;2.70;;
75054;SDS011;63636;44.746;10.488;2023-05-02T13:22:18;4.18;;;2.88;;
75054;SDS011;63636;44.746;10.488;2023-05-02T13:24:44;4.90;;;3.13;;
75054;SDS011;63636;44.746;10.488;2023-05-02T13:27:10;4.47;;;3.08;;
75054;SDS011;63636;44.746;10.488;2023-05-02T13:29:36;5.72;;;3.20;;
75054;SDS011;63636;44.746;10.488;2023-05-02T13:32:01;5.07;;;3.35;;
75054;SDS011;63636;44.746;10.488;2023-05-02T13:34:27;5.35;;;3.20;;
75054;SDS011;63636;44.746;10.488;2023-05-02T13:36:52;4.57;;;2.90;;
75054;SDS011;63636;44.746;10.488;2023-05-02T13:39:18;4.97;;;3.40;;
75054;SDS011;63636;44.746;10.488;2023-05-02T13:41:43;5.40;;;3.42;;
75054;SDS011;63636;44.746;10.488;2023-05-02T13:44:09;5.20;;;3.33;;
75054;SDS011;63636;44.746;10.488;2023-05-02T13:46:34;5.22;;;3.22;;
75054;SDS011;63636;44.746;10.488;2023-05-02T13:49:02;5.07;;;3.30;;
75054;SDS011;63636;44.746;10.488;2023-05-02T13:51:28;4.88;;;2.97;;
75054;SDS011;63636;44.746;10.488;2023-05-02T13:53:58;6.45;;;3.20;;
75054;SDS011;63636;44.746;10.488;2023-05-02T13:56:24;5.32;;;3.17;;
75054;SDS011;63636;44.746;10.488;2023-05-02T13:58:49;5.32;;;3.08;;
75054;SDS011;63636;44.746;10.488;2023-05-02T14:01:15;5.28;;;3.15;;
75054;SDS011;63636;44.746;10.488;2023-05-02T14:03:41;5.93;;;3.20;;
75054;SDS011;63636;44.746;10.488;2023-05-02T14:06:07;4.65;;;2.80;;
75054;SDS011;63636;44.746;10.488;2023-05-02T14:08:33;5.72;;;3.08;;
75054;SDS011;63636;44.746;10.488;2023-05-02T14:10:58;5.00;;;3.15;;
75054;SDS011;63636;44.746;10.488;2023-05-02T14:13:24;5.68;;;3.38;;
75054;SDS011;63636;44.746;10.488;2023-05-02T14:15:50;6.20;;;3.55;;
75054;SDS011;63636;44.746;10.488;2023-05-02T14:18:16;4.95;;;2.95;;
75054;SDS011;63636;44.746;10.488;2023-05-02T14:20:41;5.45;;;3.35;;
75054;SDS011;63636;44.746;10.488;2023-05-02T14:23:07;6.35;;;3.70;;
75054;SDS011;63636;44.746;10.488;2023-05-02T14:25:33;5.65;;;3.35;;
75054;SDS011;63636;44.746;10.488;2023-05-02T14:27:58;7.03;;;3.42;;
75054;SDS011;63636;44.746;10.488;2023-05-02T14:30:24;5.85;;;3.45;;
75054;SDS011;63636;44.746;10.488;2023-05-02T14:32:50;5.72;;;3.60;;
75054;SDS011;63636;44.746;10.488;2023-05-02T14:35:16;6.53;;;3.67;;
75054;SDS011;63636;44.746;10.488;2023-05-02T14:37:41;6.30;;;3.75;;
75054;SDS011;63636;44.746;10.488;2023-05-02T14:40:09;6.53;;;3.13;;
75054;SDS011;63636;44.746;10.488;2023-05-02T14:42:35;5.00;;;2.90;;
75054;SDS011;63636;44.746;10.488;2023-05-02T14:45:00;4.38;;;2.40;;
75054;SDS011;63636;44.746;10.488;2023-05-02T14:47:29;2.92;;;2.00;;
75054;SDS011;63636;44.746;10.488;2023-05-02T14:49:55;4.85;;;2.10;;
75054;SDS011;63636;44.746;10.488;2023-05-02T14:52:21;3.67;;;2.00;;
75054;SDS011;63636;44.746;10.488;2023-05-02T14:54:46;3.88;;;2.00;;
75054;SDS011;63636;44.746;10.488;2023-05-02T14:57:12;3.25;;;1.70;;
75054;SDS011;63636;44.746;10.488;2023-05-02T14:59:38;2.45;;;1.50;;
75054;SDS011;63636;44.746;10.488;2023-05-02T15:02:04;3.03;;;1.70;;
75054;SDS011;63636;44.746;10.488;2023-05-02T15:04:30;3.65;;;2.05;;
75054;SDS011;63636;44.746;10.488;2023-05-02T15:06:55;4.53;;;1.92;;
75054;SDS011;63636;44.746;10.488;2023-05-02T15:09:22;2.65;;;1.75;;
75054;SDS011;63636;44.746;10.488;2023-05-02T15:11:53;4.00;;;2.13;;
75054;SDS011;63636;44.746;10.488;2023-05-02T15:14:19;3.97;;;2.13;;
75054;SDS011;63636;44.746;10.488;2023-05-02T15:16:45;2.95;;;1.83;;